createdAt,value
2022-10-31T00:00:32.074Z,93.31
2022-10-31T00:02:58.850Z,93.56
2022-10-31T00:05:25.346Z,93.88
2022-10-31T00:07:54.458Z,93.91
2022-10-31T00:10:20.800Z,94.09
2022-10-31T00:12:47.109Z,94.36
2022-10-31T00:15:13.523Z,94.78
2022-10-31T00:17:39.840Z,94.95
2022-10-31T00:20:06.819Z,95.12
2022-10-31T00:22:33.158Z,94.93
2022-10-31T00:24:59.451Z,94.85
2022-10-31T00:27:25.798Z,94.73
2022-10-31T00:29:52.099Z,95.11
2022-10-31T00:32:18.433Z,95.51
2022-10-31T00:34:44.738Z,95.63
2022-10-31T00:37:11.053Z,95.86
2022-10-31T00:39:37.341Z,96.12
2022-10-31T00:42:03.748Z,96.23
2022-10-31T00:44:30.069Z,96.24
2022-10-31T00:46:56.410Z,96.45
2022-10-31T00:49:22.711Z,96.61
2022-10-31T00:51:49.124Z,96.43
2022-10-31T00:54:15.446Z,96.40
2022-10-31T00:56:41.770Z,96.89
2022-10-31T00:59:08.096Z,96.97
2022-10-31T01:01:34.544Z,96.89
2022-10-31T01:04:00.979Z,96.84
2022-10-31T01:06:27.281Z,96.66
2022-10-31T01:08:53.607Z,96.68
2022-10-31T01:11:22.294Z,96.56
2022-10-31T01:13:51.442Z,96.41
2022-10-31T01:16:20.050Z,96.77
2022-10-31T01:18:46.631Z,96.68
2022-10-31T01:21:22.278Z,96.42
2022-10-31T01:23:49.065Z,96.63
2022-10-31T01:26:21.544Z,96.71
2022-10-31T01:28:59.308Z,96.63
2022-10-31T01:31:29.463Z,96.67
2022-10-31T01:33:56.113Z,96.74
2022-10-31T01:36:25.725Z,96.83
2022-10-31T01:38:54.720Z,96.81
2022-10-31T01:41:24.488Z,96.26
2022-10-31T01:43:53.565Z,96.68
2022-10-31T01:46:37.809Z,96.70
2022-10-31T01:49:14.077Z,96.97
2022-10-31T01:51:48.776Z,96.92
2022-10-31T01:54:18.960Z,96.64
2022-10-31T01:56:50.352Z,97.35
2022-10-31T01:59:20.394Z,97.35
2022-10-31T02:01:48.697Z,97.15
2022-10-31T02:04:16.251Z,97.09
2022-10-31T02:06:49.893Z,97.04
2022-10-31T02:09:18.009Z,96.78
2022-10-31T02:11:45.727Z,96.38
2022-10-31T02:14:12.644Z,95.73
2022-10-31T02:16:38.969Z,95.70
2022-10-31T02:19:10.404Z,96.16
2022-10-31T02:21:40.778Z,96.39
2022-10-31T02:24:31.832Z,96.48
2022-10-31T02:27:04.142Z,96.72
2022-10-31T02:29:36.430Z,97.05
2022-10-31T02:32:16.640Z,97.08
2022-10-31T02:34:59.384Z,97.05
2022-10-31T02:37:28.515Z,97.34
2022-10-31T02:40:05.858Z,97.41
2022-10-31T02:42:35.431Z,97.31
2022-10-31T02:45:20.400Z,97.34
2022-10-31T02:47:49.602Z,97.00
2022-10-31T02:50:21.268Z,96.90
2022-10-31T02:52:51.832Z,96.82
2022-10-31T02:55:23.875Z,96.92
2022-10-31T02:57:53.370Z,97.13
2022-10-31T03:00:19.825Z,97.01
2022-10-31T03:02:58.650Z,96.53
2022-10-31T03:05:44.025Z,96.61
2022-10-31T03:08:32.252Z,96.93
2022-10-31T03:11:07.649Z,97.15
2022-10-31T03:13:47.987Z,97.11
2022-10-31T03:16:31.025Z,96.99
2022-10-31T03:19:04.398Z,97.31
2022-10-31T03:21:40.303Z,97.61
2022-10-31T03:24:09.398Z,97.59
2022-10-31T03:26:41.000Z,97.48
2022-10-31T03:29:10.592Z,97.39
2022-10-31T03:31:43.574Z,97.22
2022-10-31T03:34:13.226Z,97.12
2022-10-31T03:36:41.221Z,97.52
2022-10-31T03:39:12.368Z,97.47
2022-10-31T03:41:44.136Z,97.29
2022-10-31T03:44:15.777Z,97.75
2022-10-31T03:46:43.678Z,97.76
2022-10-31T03:49:11.424Z,98.73
2022-10-31T03:51:51.393Z,98.96
2022-10-31T03:54:23.951Z,98.19
2022-10-31T03:56:54.779Z,97.39
2022-10-31T03:59:31.248Z,97.54
2022-10-31T04:02:03.315Z,98.29
2022-10-31T04:04:30.527Z,98.47
2022-10-31T04:06:59.432Z,98.05
2022-10-31T04:09:28.665Z,97.64
2022-10-31T04:11:57.854Z,97.26
2022-10-31T04:14:26.262Z,97.00
2022-10-31T04:16:52.725Z,96.96
2022-10-31T04:19:19.059Z,97.11
2022-10-31T04:21:45.389Z,97.61
2022-10-31T04:24:12.244Z,97.90
2022-10-31T04:26:38.628Z,98.06
2022-10-31T04:29:04.915Z,98.02
2022-10-31T04:31:31.257Z,97.94
2022-10-31T04:33:57.666Z,97.93
2022-10-31T04:36:23.976Z,97.87
2022-10-31T04:38:50.263Z,97.99
2022-10-31T04:41:16.623Z,98.11
2022-10-31T04:43:42.951Z,98.34
2022-10-31T04:46:09.272Z,98.34
2022-10-31T04:48:35.581Z,98.38
2022-10-31T04:51:03.148Z,98.26
2022-10-31T04:53:29.781Z,97.89
2022-10-31T04:55:59.149Z,98.02
2022-10-31T04:58:25.442Z,98.39
2022-10-31T05:00:56.095Z,98.31
2022-10-31T05:03:22.981Z,98.34
2022-10-31T05:05:49.446Z,98.20
2022-10-31T05:08:15.816Z,98.33
2022-10-31T05:10:42.308Z,98.35
2022-10-31T05:13:09.124Z,98.17
2022-10-31T05:15:35.512Z,98.58
2022-10-31T05:18:02.421Z,98.52
2022-10-31T05:20:30.648Z,98.55
2022-10-31T05:22:58.374Z,98.42
2022-10-31T05:25:27.474Z,98.48
2022-10-31T05:27:54.998Z,98.77
2022-10-31T05:30:23.998Z,99.16
2022-10-31T05:32:51.599Z,99.41
2022-10-31T05:35:29.563Z,99.71
2022-10-31T05:37:56.713Z,99.65
2022-10-31T05:40:23.227Z,99.92
2022-10-31T05:42:52.835Z,100.00
2022-10-31T05:45:20.274Z,99.97
2022-10-31T05:47:58.711Z,99.75
2022-10-31T05:50:26.596Z,99.62
2022-10-31T05:53:01.426Z,99.42
2022-10-31T05:55:28.252Z,99.63
2022-10-31T05:57:55.728Z,99.12
2022-10-31T06:00:23.020Z,99.07
2022-10-31T06:02:49.916Z,98.42
2022-10-31T06:05:16.564Z,98.48
2022-10-31T06:07:42.926Z,98.55
2022-10-31T06:10:09.844Z,98.73
2022-10-31T06:12:36.996Z,99.14
2022-10-31T06:15:03.456Z,98.83
2022-10-31T06:17:29.780Z,98.91
2022-10-31T06:19:56.117Z,98.97
2022-10-31T06:22:22.464Z,98.75
2022-10-31T06:24:48.774Z,98.63
2022-10-31T06:27:15.102Z,98.95
2022-10-31T06:29:41.416Z,98.89
2022-10-31T06:32:11.488Z,98.87
2022-10-31T06:34:37.999Z,98.80
2022-10-31T06:37:04.366Z,99.12
2022-10-31T06:39:30.677Z,99.08
2022-10-31T06:41:56.979Z,98.42
2022-10-31T06:44:23.314Z,98.14
2022-10-31T06:46:49.649Z,97.86
2022-10-31T06:49:15.954Z,98.87
2022-10-31T06:51:42.674Z,98.39
2022-10-31T06:54:09.016Z,98.32
2022-10-31T06:56:35.306Z,98.20
2022-10-31T06:59:01.693Z,98.25
2022-10-31T07:01:28.085Z,97.92
2022-10-31T07:03:54.496Z,97.83
2022-10-31T07:06:20.807Z,97.60
2022-10-31T07:08:47.124Z,96.77
2022-10-31T07:11:13.420Z,96.74
2022-10-31T07:13:39.728Z,96.77
2022-10-31T07:16:06.791Z,96.75
2022-10-31T07:18:34.063Z,96.50
2022-10-31T07:21:00.383Z,96.17
2022-10-31T07:23:26.751Z,95.87
2022-10-31T07:25:59.585Z,95.78
2022-10-31T07:28:27.252Z,95.76
2022-10-31T07:30:58.677Z,95.83
2022-10-31T07:33:25.573Z,95.46
2022-10-31T07:35:51.881Z,95.05
2022-10-31T07:38:18.399Z,94.88
2022-10-31T07:40:44.863Z,94.78
2022-10-31T07:43:14.438Z,94.68
2022-10-31T07:45:41.351Z,93.55
2022-10-31T07:48:07.639Z,92.85
2022-10-31T07:50:34.514Z,91.32
2022-10-31T07:53:02.918Z,90.54
2022-10-31T07:55:29.725Z,90.76
2022-10-31T07:58:04.051Z,90.36
2022-10-31T08:00:31.887Z,89.77
2022-10-31T08:03:18.607Z,89.85
2022-10-31T08:05:45.335Z,89.53
2022-10-31T08:08:11.635Z,89.00
2022-10-31T08:10:38.055Z,88.78
2022-10-31T08:13:08.080Z,88.26
2022-10-31T08:15:34.855Z,88.01
2022-10-31T08:18:01.515Z,87.81
2022-10-31T08:20:28.024Z,87.80
2022-10-31T08:22:55.928Z,87.43
2022-10-31T08:25:22.929Z,87.78
2022-10-31T08:27:53.990Z,86.79
2022-10-31T08:30:21.850Z,86.27
2022-10-31T08:32:57.292Z,86.25
2022-10-31T08:35:23.696Z,86.33
2022-10-31T08:37:54.452Z,85.97
2022-10-31T08:40:21.053Z,85.83
2022-10-31T08:42:47.384Z,85.48
2022-10-31T08:45:13.717Z,85.14
2022-10-31T08:47:40.017Z,86.19
2022-10-31T08:50:06.560Z,86.00
2022-10-31T08:52:58.831Z,84.82
2022-10-31T08:55:19.216Z,85.69
2022-10-31T08:57:45.532Z,86.36
2022-10-31T09:00:12.268Z,87.10
2022-10-31T09:02:38.581Z,86.50
2022-10-31T09:05:05.403Z,86.68
2022-10-31T09:07:31.788Z,87.37
2022-10-31T09:09:58.087Z,87.56
2022-10-31T09:12:24.489Z,87.23
2022-10-31T09:14:50.860Z,86.40
2022-10-31T09:17:17.170Z,85.97
2022-10-31T09:19:43.491Z,86.13
2022-10-31T09:22:10.021Z,86.32
2022-10-31T09:24:36.383Z,86.22
2022-10-31T09:27:02.783Z,87.17
2022-10-31T09:29:29.117Z,86.64
2022-10-31T09:31:57.281Z,85.71
2022-10-31T09:34:23.667Z,85.54
2022-10-31T09:36:49.975Z,86.13
2022-10-31T09:39:16.323Z,85.57
2022-10-31T09:42:25.287Z,86.11
2022-10-31T09:45:07.577Z,86.58
2022-10-31T09:47:59.132Z,86.30
2022-10-31T09:50:32.316Z,86.14
2022-10-31T09:53:04.727Z,86.38
2022-10-31T09:55:43.890Z,85.96
2022-10-31T09:58:34.104Z,85.69
2022-10-31T10:01:05.238Z,85.82
2022-10-31T10:03:44.818Z,85.70
2022-10-31T10:06:19.615Z,85.66
2022-10-31T10:08:45.961Z,85.92
2022-10-31T10:11:30.501Z,85.32
2022-10-31T10:14:05.955Z,84.45
2022-10-31T10:17:03.124Z,85.10
2022-10-31T10:19:54.012Z,85.04
2022-10-31T10:22:33.924Z,83.73
2022-10-31T10:25:12.128Z,83.95
2022-10-31T10:28:00.510Z,83.33
2022-10-31T10:30:49.859Z,83.47
2022-10-31T10:33:25.112Z,83.15
2022-10-31T10:35:54.353Z,82.75
2022-10-31T10:38:38.120Z,82.34
2022-10-31T10:41:10.954Z,81.87
2022-10-31T10:43:38.344Z,80.42
2022-10-31T10:46:13.412Z,80.04
2022-10-31T10:48:55.738Z,78.83
2022-10-31T10:54:40.855Z,78.57
2022-10-31T10:57:19.771Z,77.83
2022-10-31T10:59:47.204Z,78.53
2022-10-31T11:02:23.027Z,76.66
2022-10-31T11:04:55.272Z,75.90
2022-10-31T11:07:22.694Z,75.76
2022-10-31T11:09:49.137Z,75.95
2022-10-31T11:12:22.982Z,75.42
2022-10-31T11:14:59.334Z,73.79
2022-10-31T11:17:33.976Z,72.95
2022-10-31T11:20:02.423Z,72.51
2022-10-31T11:22:28.744Z,71.84
2022-10-31T11:24:55.100Z,70.94
2022-10-31T11:27:23.138Z,72.25
2022-10-31T11:29:50.639Z,72.64
2022-10-31T11:32:23.212Z,72.48
2022-10-31T11:34:54.648Z,70.94
2022-10-31T11:37:30.106Z,70.53
2022-10-31T11:39:59.833Z,71.43
2022-10-31T11:42:30.843Z,71.64
2022-10-31T11:44:57.901Z,72.12
2022-10-31T11:47:30.472Z,71.11
2022-10-31T11:49:58.575Z,71.61
2022-10-31T11:52:31.281Z,71.91
2022-10-31T11:55:12.827Z,71.79
2022-10-31T11:57:53.177Z,72.13
2022-10-31T12:00:30.629Z,73.37
2022-10-31T12:03:39.012Z,73.58
2022-10-31T12:06:23.223Z,72.83
2022-10-31T12:08:49.628Z,73.69
2022-10-31T12:11:18.629Z,73.96
2022-10-31T12:14:08.044Z,73.16
2022-10-31T12:16:49.350Z,73.03
2022-10-31T12:19:34.357Z,73.87
2022-10-31T12:22:11.862Z,72.77
2022-10-31T12:25:17.211Z,72.55
2022-10-31T12:28:09.587Z,72.15
2022-10-31T12:30:59.521Z,73.05
2022-10-31T12:33:56.484Z,73.13
2022-10-31T12:36:51.665Z,70.88
2022-10-31T12:39:20.818Z,70.65
2022-10-31T12:41:53.436Z,70.11
2022-10-31T12:44:24.248Z,69.69
2022-10-31T12:47:08.323Z,69.29
2022-10-31T12:49:53.095Z,69.46
2022-10-31T12:52:34.511Z,70.81
2022-10-31T12:55:30.645Z,70.77
2022-10-31T12:58:08.390Z,71.21
2022-10-31T13:00:39.006Z,71.63
2022-10-31T13:03:24.884Z,71.01
2022-10-31T13:05:57.572Z,70.81
2022-10-31T13:08:40.014Z,71.06
2022-10-31T13:11:12.347Z,71.47
2022-10-31T13:14:24.553Z,70.81
2022-10-31T13:16:51.252Z,70.82
2022-10-31T13:19:21.394Z,71.74
2022-10-31T13:22:05.998Z,71.08
2022-10-31T13:24:40.295Z,71.54
2022-10-31T13:27:18.790Z,70.85
2022-10-31T13:30:01.684Z,70.99
2022-10-31T13:32:37.272Z,71.37
2022-10-31T13:35:05.345Z,70.89
2022-10-31T13:37:44.651Z,70.82
2022-10-31T13:40:20.179Z,70.74
2022-10-31T13:43:01.177Z,70.19
2022-10-31T13:45:27.799Z,70.00
2022-10-31T13:48:07.553Z,70.17
2022-10-31T13:50:34.116Z,69.91
2022-10-31T13:53:19.597Z,70.21
2022-10-31T13:55:49.417Z,69.96
2022-10-31T13:58:30.270Z,69.95
2022-10-31T14:01:08.791Z,70.50
2022-10-31T14:04:04.632Z,70.50
2022-10-31T14:06:54.217Z,70.48
2022-10-31T14:09:23.731Z,71.36
2022-10-31T14:11:51.735Z,71.79
2022-10-31T14:14:20.043Z,72.15
2022-10-31T14:16:55.697Z,72.11
2022-10-31T14:19:23.095Z,72.46
2022-10-31T14:21:50.733Z,73.15
2022-10-31T14:24:26.082Z,73.04
2022-10-31T14:27:33.684Z,73.41
2022-10-31T14:30:14.793Z,73.61
2022-10-31T14:32:43.977Z,74.39
2022-10-31T14:35:21.051Z,74.08
2022-10-31T14:38:04.506Z,74.56
2022-10-31T14:40:52.760Z,75.39
2022-10-31T14:43:47.093Z,76.32
2022-10-31T14:46:52.061Z,77.64
2022-10-31T14:49:36.625Z,78.22
2022-10-31T14:52:06.494Z,78.40
2022-10-31T14:54:40.824Z,78.55
2022-10-31T14:57:22.226Z,78.63
2022-10-31T14:59:59.132Z,78.87
2022-10-31T15:02:35.146Z,78.61
2022-10-31T15:05:03.764Z,79.71
2022-10-31T15:07:34.956Z,79.11
2022-10-31T15:10:20.177Z,79.47
2022-10-31T15:12:46.521Z,79.70
2022-10-31T15:15:21.547Z,79.69
2022-10-31T15:17:55.902Z,80.22
2022-10-31T15:20:31.632Z,80.89
2022-10-31T15:22:59.635Z,81.71
2022-10-31T15:25:30.420Z,81.77
2022-10-31T15:27:56.756Z,82.43
2022-10-31T15:30:28.196Z,82.67
2022-10-31T15:32:58.538Z,82.48
2022-10-31T15:35:30.920Z,82.24
2022-10-31T15:37:59.345Z,82.88
2022-10-31T15:40:27.546Z,83.30
2022-10-31T15:42:58.649Z,83.47
2022-10-31T15:45:27.321Z,83.34
2022-10-31T15:47:59.594Z,83.07
2022-10-31T15:50:32.102Z,82.76
2022-10-31T15:52:59.612Z,83.36
2022-10-31T15:55:33.466Z,83.61
2022-10-31T15:58:03.954Z,83.58
2022-10-31T16:00:35.337Z,83.66
2022-10-31T16:03:07.372Z,84.02
2022-10-31T16:05:46.205Z,84.24
2022-10-31T16:08:30.789Z,84.54
2022-10-31T16:11:12.334Z,83.57
2022-10-31T16:13:52.257Z,83.67
2022-10-31T16:16:35.217Z,84.59
2022-10-31T16:19:04.535Z,85.10
2022-10-31T16:21:40.367Z,85.89
2022-10-31T16:24:31.555Z,85.94
2022-10-31T16:27:06.738Z,86.29
2022-10-31T16:29:43.684Z,86.20
2022-10-31T16:32:26.432Z,86.00
2022-10-31T16:35:11.027Z,86.92
2022-10-31T16:37:43.940Z,86.91
2022-10-31T16:40:14.725Z,86.54
2022-10-31T16:42:42.490Z,86.17
2022-10-31T16:45:15.984Z,86.53
2022-10-31T16:47:42.521Z,86.63
2022-10-31T16:50:14.533Z,86.33
2022-10-31T16:52:53.899Z,86.57
2022-10-31T16:55:27.228Z,86.09
2022-10-31T16:57:55.887Z,85.58
2022-10-31T17:00:24.396Z,85.51
2022-10-31T17:02:56.425Z,85.12
2022-10-31T17:05:24.012Z,85.02
2022-10-31T17:07:50.311Z,84.91
2022-10-31T17:10:16.721Z,84.88
2022-10-31T17:12:46.177Z,84.95
2022-10-31T17:15:26.969Z,84.77
2022-10-31T17:17:54.063Z,85.12
2022-10-31T17:20:26.694Z,85.21
2022-10-31T17:22:53.605Z,85.08
2022-10-31T17:25:23.199Z,85.17
2022-10-31T17:27:50.439Z,84.77
2022-10-31T17:30:18.330Z,84.26
2022-10-31T17:32:45.880Z,84.14
2022-10-31T17:35:13.694Z,83.72
2022-10-31T17:37:40.805Z,83.97
2022-10-31T17:40:07.485Z,84.10
2022-10-31T17:42:33.802Z,84.30
2022-10-31T17:45:00.138Z,84.34
2022-10-31T17:47:26.465Z,84.86
2022-10-31T17:49:52.786Z,84.94
2022-10-31T17:52:19.904Z,85.21
2022-10-31T17:54:46.280Z,84.90
2022-10-31T17:57:12.752Z,85.01
2022-10-31T17:59:39.080Z,84.84
2022-10-31T18:02:05.533Z,85.26
2022-10-31T18:04:31.960Z,85.63
2022-10-31T18:06:58.310Z,85.78
2022-10-31T18:09:24.650Z,85.84
2022-10-31T18:11:51.235Z,86.02
2022-10-31T18:14:17.605Z,85.82
2022-10-31T18:16:43.946Z,85.33
2022-10-31T18:19:12.886Z,85.51
2022-10-31T18:21:39.601Z,85.91
2022-10-31T18:24:06.437Z,86.19
2022-10-31T18:26:32.801Z,85.88
2022-10-31T18:28:59.118Z,86.32
2022-10-31T18:31:25.429Z,86.65
2022-10-31T18:33:55.805Z,86.77
2022-10-31T18:36:23.031Z,87.32
2022-10-31T18:38:49.358Z,87.69
2022-10-31T18:41:16.041Z,87.94
2022-10-31T18:43:42.729Z,88.06
2022-10-31T18:46:13.285Z,87.59
2022-10-31T18:48:43.809Z,87.34
2022-10-31T18:51:12.183Z,87.61
2022-10-31T18:53:38.760Z,87.92
2022-10-31T18:56:10.301Z,87.71
2022-10-31T18:58:37.361Z,87.55
2022-10-31T19:01:08.592Z,88.13
2022-10-31T19:03:35.326Z,88.23
2022-10-31T19:06:01.710Z,88.34
2022-10-31T19:11:06.408Z,88.31
2022-10-31T19:13:33.998Z,88.62
2022-10-31T19:16:08.268Z,88.28
2022-10-31T19:18:34.560Z,88.16
2022-10-31T19:21:06.046Z,88.48
2022-10-31T19:23:32.443Z,88.46
2022-10-31T19:25:59.777Z,88.37
2022-10-31T19:28:26.471Z,87.93
2022-10-31T19:30:54.257Z,87.41
2022-10-31T19:33:20.681Z,87.57
2022-10-31T19:35:47.148Z,87.77
2022-10-31T19:38:14.130Z,87.76
2022-10-31T19:40:40.614Z,87.29
2022-10-31T19:43:07.030Z,87.42
2022-10-31T19:45:33.433Z,87.30
2022-10-31T19:48:00.261Z,87.21
2022-10-31T19:50:26.856Z,86.72
2022-10-31T19:52:53.364Z,86.32
2022-10-31T19:55:19.711Z,86.42
2022-10-31T19:58:01.259Z,86.24
2022-10-31T20:00:28.012Z,86.26
2022-10-31T20:02:54.349Z,86.04
2022-10-31T20:05:21.264Z,86.11
2022-10-31T20:07:47.590Z,85.83
2022-10-31T20:10:13.895Z,85.60
2022-10-31T20:12:40.268Z,85.73
2022-10-31T20:15:06.905Z,85.76
2022-10-31T20:17:33.514Z,85.92
2022-10-31T20:19:59.895Z,85.69
2022-10-31T20:22:26.303Z,85.69
2022-10-31T20:24:52.629Z,85.65
2022-10-31T20:27:19.025Z,85.63
2022-10-31T20:29:45.344Z,85.50
2022-10-31T20:32:11.646Z,85.17
2022-10-31T20:34:39.156Z,85.09
2022-10-31T20:37:05.557Z,84.83
2022-10-31T20:39:31.946Z,85.02
2022-10-31T20:41:58.256Z,85.16
2022-10-31T20:44:24.568Z,84.42
2022-10-31T20:46:50.859Z,84.87
2022-10-31T20:49:17.220Z,85.51
2022-10-31T20:51:43.623Z,86.12
2022-10-31T20:54:12.768Z,86.26
2022-10-31T20:56:39.946Z,86.66
2022-10-31T20:59:06.266Z,86.77
2022-10-31T21:01:33.672Z,86.74
2022-10-31T21:04:00.179Z,87.01
2022-10-31T21:06:27.250Z,87.46
2022-10-31T21:08:54.180Z,87.83
2022-10-31T21:11:23.836Z,87.45
2022-10-31T21:13:51.027Z,87.54
2022-10-31T21:16:20.575Z,87.18
2022-10-31T21:18:48.116Z,87.00
2022-10-31T21:21:24.132Z,86.81
2022-10-31T21:23:57.784Z,86.74
2022-10-31T21:26:26.508Z,86.64
2022-10-31T21:28:56.099Z,86.71
2022-10-31T21:31:22.621Z,86.56
2022-10-31T21:33:49.126Z,86.41
2022-10-31T21:36:15.529Z,86.28
2022-10-31T21:38:42.416Z,85.72
2022-10-31T21:41:12.326Z,85.59
2022-10-31T21:43:40.200Z,85.70
2022-10-31T21:46:19.685Z,85.49
2022-10-31T21:48:46.137Z,85.84
2022-10-31T21:51:17.761Z,86.00
2022-10-31T21:53:44.446Z,86.28
2022-10-31T21:56:10.761Z,86.36
2022-10-31T21:58:38.569Z,86.47
2022-10-31T22:01:05.423Z,86.04
2022-10-31T22:03:38.940Z,86.39
2022-10-31T22:06:06.805Z,86.67
2022-10-31T22:08:33.713Z,86.29
2022-10-31T22:11:08.154Z,86.13
2022-10-31T22:13:35.589Z,86.41
2022-10-31T22:16:06.769Z,86.12
2022-10-31T22:18:33.315Z,86.23
2022-10-31T22:21:04.442Z,86.33
2022-10-31T22:23:30.801Z,86.08
2022-10-31T22:26:02.243Z,86.09
2022-10-31T22:28:32.838Z,86.23
2022-10-31T22:31:04.416Z,85.99
2022-10-31T22:33:30.788Z,86.03
2022-10-31T22:36:00.339Z,85.89
2022-10-31T22:38:26.650Z,86.40
2022-10-31T22:40:56.645Z,86.19
2022-10-31T22:43:22.961Z,86.15
2022-10-31T22:45:57.256Z,86.60
2022-10-31T22:48:23.575Z,86.68
2022-10-31T22:50:49.886Z,86.82
2022-10-31T22:53:16.212Z,87.04
2022-10-31T22:55:42.508Z,86.01
2022-10-31T22:58:08.853Z,85.63
2022-10-31T23:00:35.238Z,86.06
2022-10-31T23:03:01.890Z,85.83
2022-10-31T23:05:28.256Z,85.44
2022-10-31T23:07:54.541Z,86.00
2022-10-31T23:10:20.854Z,85.82
2022-10-31T23:12:47.141Z,86.02
2022-10-31T23:15:13.510Z,85.81
2022-10-31T23:17:40.789Z,85.95
2022-10-31T23:20:07.504Z,86.31
2022-10-31T23:22:33.839Z,86.25
2022-10-31T23:25:00.179Z,86.08
2022-10-31T23:27:26.516Z,86.20
2022-10-31T23:29:57.652Z,86.40
2022-10-31T23:32:33.682Z,86.09
2022-10-31T23:35:02.969Z,86.32
2022-10-31T23:37:32.813Z,85.90
2022-10-31T23:39:59.620Z,85.73
2022-10-31T23:42:27.083Z,85.71
2022-10-31T23:44:53.860Z,85.88
2022-10-31T23:47:21.285Z,85.84
2022-10-31T23:49:48.008Z,85.63
2022-10-31T23:52:15.117Z,85.80
2022-10-31T23:54:41.467Z,85.66
2022-10-31T23:57:08.422Z,85.68
2022-10-31T23:59:34.757Z,85.92
